sensor_id;sensor_type;location;lat;lon;timestamp;temperature;humidity
5226;DHT22;2632;51.666;7.146;2024-02-21T00:00:08;10.00;87.80
5226;DHT22;2632;51.666;7.146;2024-02-21T00:02:37;9.90;88.30
5226;DHT22;2632;51.666;7.146;2024-02-21T00:05:03;10.00;88.40
5226;DHT22;2632;51.666;7.146;2024-02-21T00:07:30;9.90;88.30
5226;DHT22;2632;51.666;7.146;2024-02-21T00:09:57;9.90;88.50
5226;DHT22;2632;51.666;7.146;2024-02-21T00:12:24;9.90;88.40
5226;DHT22;2632;51.666;7.146;2024-02-21T00:14:50;9.90;88.30
5226;DHT22;2632;51.666;7.146;2024-02-21T00:17:17;9.90;88.40
5226;DHT22;2632;51.666;7.146;2024-02-21T00:19:44;9.90;88.20
5226;DHT22;2632;51.666;7.146;2024-02-21T00:22:10;9.90;88.50
5226;DHT22;2632;51.666;7.146;2024-02-21T00:24:37;9.90;88.40
5226;DHT22;2632;51.666;7.146;2024-02-21T00:27:04;9.90;88.90
5226;DHT22;2632;51.666;7.146;2024-02-21T00:29:30;9.90;88.40
5226;DHT22;2632;51.666;7.146;2024-02-21T00:31:57;9.90;88.90
5226;DHT22;2632;51.666;7.146;2024-02-21T00:34:24;9.90;88.60
5226;DHT22;2632;51.666;7.146;2024-02-21T00:36:50;9.90;88.60
5226;DHT22;2632;51.666;7.146;2024-02-21T00:39:17;9.90;88.80
5226;DHT22;2632;51.666;7.146;2024-02-21T00:41:44;9.90;88.90
5226;DHT22;2632;51.666;7.146;2024-02-21T00:44:10;9.90;88.90
5226;DHT22;2632;51.666;7.146;2024-02-21T00:46:37;9.80;89.10
5226;DHT22;2632;51.666;7.146;2024-02-21T00:49:05;9.90;88.90
5226;DHT22;2632;51.666;7.146;2024-02-21T00:51:32;9.90;88.90
5226;DHT22;2632;51.666;7.146;2024-02-21T00:53:59;9.90;88.90
5226;DHT22;2632;51.666;7.146;2024-02-21T00:56:25;9.80;88.60
5226;DHT22;2632;51.666;7.146;2024-02-21T00:58:52;9.80;88.90
5226;DHT22;2632;51.666;7.146;2024-02-21T01:01:25;9.80;88.80
5226;DHT22;2632;51.666;7.146;2024-02-21T01:03:52;9.80;88.60
5226;DHT22;2632;51.666;7.146;2024-02-21T01:06:20;9.80;88.80
5226;DHT22;2632;51.666;7.146;2024-02-21T01:08:47;9.80;88.90
5226;DHT22;2632;51.666;7.146;2024-02-21T01:11:15;9.70;88.80
5226;DHT22;2632;51.666;7.146;2024-02-21T01:13:42;9.80;88.90
5226;DHT22;2632;51.666;7.146;2024-02-21T01:16:09;9.70;88.70
5226;DHT22;2632;51.666;7.146;2024-02-21T01:18:39;9.70;89.20
5226;DHT22;2632;51.666;7.146;2024-02-21T01:21:07;9.80;89.30
5226;DHT22;2632;51.666;7.146;2024-02-21T01:23:34;9.80;89.40
5226;DHT22;2632;51.666;7.146;2024-02-21T01:26:01;9.70;88.80
5226;DHT22;2632;51.666;7.146;2024-02-21T01:28:28;9.70;88.70
5226;DHT22;2632;51.666;7.146;2024-02-21T01:30:55;9.80;89.40
5226;DHT22;2632;51.666;7.146;2024-02-21T01:33:22;9.70;88.80
5226;DHT22;2632;51.666;7.146;2024-02-21T01:35:48;9.70;88.60
5226;DHT22;2632;51.666;7.146;2024-02-21T01:38:16;9.70;88.80
5226;DHT22;2632;51.666;7.146;2024-02-21T01:40:43;9.70;89.20
5226;DHT22;2632;51.666;7.146;2024-02-21T01:43:17;9.80;88.80
5226;DHT22;2632;51.666;7.146;2024-02-21T01:45:55;9.80;88.60
5226;DHT22;2632;51.666;7.146;2024-02-21T01:48:23;9.90;88.70
5226;DHT22;2632;51.666;7.146;2024-02-21T01:50:51;9.80;88.80
5226;DHT22;2632;51.666;7.146;2024-02-21T01:53:21;9.80;88.80
5226;DHT22;2632;51.666;7.146;2024-02-21T01:55:48;9.70;89.00
5226;DHT22;2632;51.666;7.146;2024-02-21T01:58:15;9.80;88.90
5226;DHT22;2632;51.666;7.146;2024-02-21T02:00:43;9.70;88.80
5226;DHT22;2632;51.666;7.146;2024-02-21T02:03:10;9.80;88.90
5226;DHT22;2632;51.666;7.146;2024-02-21T02:05:47;9.80;88.80
5226;DHT22;2632;51.666;7.146;2024-02-21T02:08:17;9.80;88.30
5226;DHT22;2632;51.666;7.146;2024-02-21T02:10:45;9.80;88.80
5226;DHT22;2632;51.666;7.146;2024-02-21T02:13:12;9.80;88.20
5226;DHT22;2632;51.666;7.146;2024-02-21T02:15:45;9.80;88.50
5226;DHT22;2632;51.666;7.146;2024-02-21T02:18:13;9.80;88.40
5226;DHT22;2632;51.666;7.146;2024-02-21T02:20:40;9.80;88.80
5226;DHT22;2632;51.666;7.146;2024-02-21T02:23:10;9.80;89.30
5226;DHT22;2632;51.666;7.146;2024-02-21T02:25:38;9.90;88.30
5226;DHT22;2632;51.666;7.146;2024-02-21T02:28:08;9.80;88.20
5226;DHT22;2632;51.666;7.146;2024-02-21T02:30:36;9.80;87.90
5226;DHT22;2632;51.666;7.146;2024-02-21T02:33:06;9.80;88.20
5226;DHT22;2632;51.666;7.146;2024-02-21T02:35:33;9.80;88.30
5226;DHT22;2632;51.666;7.146;2024-02-21T02:38:02;9.70;87.80
5226;DHT22;2632;51.666;7.146;2024-02-21T02:40:30;9.80;88.10
5226;DHT22;2632;51.666;7.146;2024-02-21T02:42:57;9.80;88.40
5226;DHT22;2632;51.666;7.146;2024-02-21T02:45:24;9.80;88.00
5226;DHT22;2632;51.666;7.146;2024-02-21T02:47:53;9.80;87.70
5226;DHT22;2632;51.666;7.146;2024-02-21T02:50:27;9.70;87.90
5226;DHT22;2632;51.666;7.146;2024-02-21T02:52:54;9.70;87.90
5226;DHT22;2632;51.666;7.146;2024-02-21T02:55:21;9.80;88.20
5226;DHT22;2632;51.666;7.146;2024-02-21T02:57:48;9.80;88.80
5226;DHT22;2632;51.666;7.146;2024-02-21T03:00:15;9.80;87.80
5226;DHT22;2632;51.666;7.146;2024-02-21T03:02:44;9.70;87.80
5226;DHT22;2632;51.666;7.146;2024-02-21T03:05:16;9.70;88.10
5226;DHT22;2632;51.666;7.146;2024-02-21T03:07:44;9.70;87.80
5226;DHT22;2632;51.666;7.146;2024-02-21T03:10:12;9.70;88.70
5226;DHT22;2632;51.666;7.146;2024-02-21T03:12:39;9.70;88.00
5226;DHT22;2632;51.666;7.146;2024-02-21T03:15:06;9.60;88.20
5226;DHT22;2632;51.666;7.146;2024-02-21T03:17:33;9.70;88.80
5226;DHT22;2632;51.666;7.146;2024-02-21T03:20:05;9.60;88.30
5226;DHT22;2632;51.666;7.146;2024-02-21T03:22:32;9.60;88.80
5226;DHT22;2632;51.666;7.146;2024-02-21T03:24:59;9.60;88.70
5226;DHT22;2632;51.666;7.146;2024-02-21T03:27:26;9.70;88.50
5226;DHT22;2632;51.666;7.146;2024-02-21T03:29:53;9.70;88.70
5226;DHT22;2632;51.666;7.146;2024-02-21T03:32:19;9.70;88.80
5226;DHT22;2632;51.666;7.146;2024-02-21T03:34:46;9.70;88.90
5226;DHT22;2632;51.666;7.146;2024-02-21T03:37:13;9.70;88.60
5226;DHT22;2632;51.666;7.146;2024-02-21T03:39:41;9.60;88.80
5226;DHT22;2632;51.666;7.146;2024-02-21T03:42:07;9.70;88.50
5226;DHT22;2632;51.666;7.146;2024-02-21T03:44:34;9.70;89.10
5226;DHT22;2632;51.666;7.146;2024-02-21T03:47:01;9.70;88.80
5226;DHT22;2632;51.666;7.146;2024-02-21T03:49:28;9.70;88.70
5226;DHT22;2632;51.666;7.146;2024-02-21T03:51:55;9.70;88.80
5226;DHT22;2632;51.666;7.146;2024-02-21T03:54:22;9.70;88.90
5226;DHT22;2632;51.666;7.146;2024-02-21T03:56:49;9.60;89.00
5226;DHT22;2632;51.666;7.146;2024-02-21T03:59:16;9.60;88.70
5226;DHT22;2632;51.666;7.146;2024-02-21T04:01:42;9.60;89.30
5226;DHT22;2632;51.666;7.146;2024-02-21T04:04:10;9.60;88.50
5226;DHT22;2632;51.666;7.146;2024-02-21T04:06:38;9.70;89.10
5226;DHT22;2632;51.666;7.146;2024-02-21T04:09:11;9.70;88.40
5226;DHT22;2632;51.666;7.146;2024-02-21T04:11:38;9.80;88.40
5226;DHT22;2632;51.666;7.146;2024-02-21T04:14:05;9.80;88.20
5226;DHT22;2632;51.666;7.146;2024-02-21T04:16:31;9.70;87.80
5226;DHT22;2632;51.666;7.146;2024-02-21T04:18:58;9.70;88.10
5226;DHT22;2632;51.666;7.146;2024-02-21T04:21:25;9.70;87.80
5226;DHT22;2632;51.666;7.146;2024-02-21T04:23:51;9.70;87.90
5226;DHT22;2632;51.666;7.146;2024-02-21T04:26:18;9.80;87.80
5226;DHT22;2632;51.666;7.146;2024-02-21T04:28:45;9.80;87.70
5226;DHT22;2632;51.666;7.146;2024-02-21T04:31:12;9.70;87.80
5226;DHT22;2632;51.666;7.146;2024-02-21T04:33:39;9.80;88.80
5226;DHT22;2632;51.666;7.146;2024-02-21T04:36:06;9.80;87.50
5226;DHT22;2632;51.666;7.146;2024-02-21T04:38:32;9.70;87.90
5226;DHT22;2632;51.666;7.146;2024-02-21T04:40:59;9.70;87.60
5226;DHT22;2632;51.666;7.146;2024-02-21T04:43:26;9.70;88.10
5226;DHT22;2632;51.666;7.146;2024-02-21T04:45:52;9.70;87.90
5226;DHT22;2632;51.666;7.146;2024-02-21T04:48:20;9.60;87.90
5226;DHT22;2632;51.666;7.146;2024-02-21T04:50:47;9.70;88.10
5226;DHT22;2632;51.666;7.146;2024-02-21T04:53:14;9.70;88.30
5226;DHT22;2632;51.666;7.146;2024-02-21T04:55:40;9.70;88.50
5226;DHT22;2632;51.666;7.146;2024-02-21T04:58:07;9.70;88.80
5226;DHT22;2632;51.666;7.146;2024-02-21T05:00:35;9.70;88.60
5226;DHT22;2632;51.666;7.146;2024-02-21T05:03:02;9.70;88.40
5226;DHT22;2632;51.666;7.146;2024-02-21T05:05:28;9.60;88.80
5226;DHT22;2632;51.666;7.146;2024-02-21T05:07:56;9.60;88.60
5226;DHT22;2632;51.666;7.146;2024-02-21T05:10:22;9.60;88.80
5226;DHT22;2632;51.666;7.146;2024-02-21T05:12:49;9.60;88.90
5226;DHT22;2632;51.666;7.146;2024-02-21T05:15:16;9.60;88.80
5226;DHT22;2632;51.666;7.146;2024-02-21T05:17:42;9.50;88.90
5226;DHT22;2632;51.666;7.146;2024-02-21T05:20:10;9.60;88.90
5226;DHT22;2632;51.666;7.146;2024-02-21T05:22:37;9.60;89.30
5226;DHT22;2632;51.666;7.146;2024-02-21T05:25:04;9.60;88.80
5226;DHT22;2632;51.666;7.146;2024-02-21T05:27:31;9.60;89.10
5226;DHT22;2632;51.666;7.146;2024-02-21T05:29:57;9.60;88.70
5226;DHT22;2632;51.666;7.146;2024-02-21T05:32:25;9.60;89.10
5226;DHT22;2632;51.666;7.146;2024-02-21T05:34:52;9.50;88.30
5226;DHT22;2632;51.666;7.146;2024-02-21T05:37:19;9.50;89.50
5226;DHT22;2632;51.666;7.146;2024-02-21T05:39:46;9.50;88.30
5226;DHT22;2632;51.666;7.146;2024-02-21T05:42:12;9.50;88.60
5226;DHT22;2632;51.666;7.146;2024-02-21T05:44:39;9.60;88.50
5226;DHT22;2632;51.666;7.146;2024-02-21T05:47:05;9.50;88.60
5226;DHT22;2632;51.666;7.146;2024-02-21T05:49:36;9.60;88.50
5226;DHT22;2632;51.666;7.146;2024-02-21T05:52:04;9.60;87.90
5226;DHT22;2632;51.666;7.146;2024-02-21T05:54:32;9.50;88.30
5226;DHT22;2632;51.666;7.146;2024-02-21T05:56:59;9.50;88.20
5226;DHT22;2632;51.666;7.146;2024-02-21T05:59:25;9.50;88.40
5226;DHT22;2632;51.666;7.146;2024-02-21T06:01:56;9.60;88.10
5226;DHT22;2632;51.666;7.146;2024-02-21T06:04:24;9.60;88.00
5226;DHT22;2632;51.666;7.146;2024-02-21T06:06:51;9.60;87.40
5226;DHT22;2632;51.666;7.146;2024-02-21T06:09:17;9.60;87.40
5226;DHT22;2632;51.666;7.146;2024-02-21T06:11:44;9.50;87.60
5226;DHT22;2632;51.666;7.146;2024-02-21T06:14:13;9.50;87.90
5226;DHT22;2632;51.666;7.146;2024-02-21T06:16:39;9.60;87.60
5226;DHT22;2632;51.666;7.146;2024-02-21T06:19:06;9.60;88.50
5226;DHT22;2632;51.666;7.146;2024-02-21T06:21:36;9.60;87.80
5226;DHT22;2632;51.666;7.146;2024-02-21T06:24:03;9.60;87.40
5226;DHT22;2632;51.666;7.146;2024-02-21T06:26:30;9.60;87.30
5226;DHT22;2632;51.666;7.146;2024-02-21T06:28:57;9.60;87.60
5226;DHT22;2632;51.666;7.146;2024-02-21T06:31:27;9.50;87.80
5226;DHT22;2632;51.666;7.146;2024-02-21T06:33:54;9.60;87.50
5226;DHT22;2632;51.666;7.146;2024-02-21T06:36:21;9.60;87.30
5226;DHT22;2632;51.666;7.146;2024-02-21T06:38:48;9.60;87.40
5226;DHT22;2632;51.666;7.146;2024-02-21T06:41:18;9.70;89.20
5226;DHT22;2632;51.666;7.146;2024-02-21T06:43:46;9.80;89.00
5226;DHT22;2632;51.666;7.146;2024-02-21T06:46:26;9.80;86.90
5226;DHT22;2632;51.666;7.146;2024-02-21T06:48:56;9.70;86.80
5226;DHT22;2632;51.666;7.146;2024-02-21T06:51:24;9.70;86.60
5226;DHT22;2632;51.666;7.146;2024-02-21T06:53:51;9.60;86.80
5226;DHT22;2632;51.666;7.146;2024-02-21T06:56:18;9.70;86.80
5226;DHT22;2632;51.666;7.146;2024-02-21T06:58:45;9.60;86.80
5226;DHT22;2632;51.666;7.146;2024-02-21T07:01:12;9.60;87.10
5226;DHT22;2632;51.666;7.146;2024-02-21T07:03:38;9.60;86.90
5226;DHT22;2632;51.666;7.146;2024-02-21T07:06:05;9.60;87.00
5226;DHT22;2632;51.666;7.146;2024-02-21T07:08:32;9.70;87.00
5226;DHT22;2632;51.666;7.146;2024-02-21T07:10:59;9.70;87.00
5226;DHT22;2632;51.666;7.146;2024-02-21T07:13:26;9.70;86.70
5226;DHT22;2632;51.666;7.146;2024-02-21T07:15:52;9.70;86.80
5226;DHT22;2632;51.666;7.146;2024-02-21T07:18:19;9.70;86.80
5226;DHT22;2632;51.666;7.146;2024-02-21T07:20:46;9.70;86.70
5226;DHT22;2632;51.666;7.146;2024-02-21T07:23:13;9.70;86.40
5226;DHT22;2632;51.666;7.146;2024-02-21T07:25:40;9.70;86.30
5226;DHT22;2632;51.666;7.146;2024-02-21T07:28:07;9.70;86.50
5226;DHT22;2632;51.666;7.146;2024-02-21T07:30:33;9.70;86.30
5226;DHT22;2632;51.666;7.146;2024-02-21T07:33:00;9.80;86.10
5226;DHT22;2632;51.666;7.146;2024-02-21T07:35:27;9.80;86.00
5226;DHT22;2632;51.666;7.146;2024-02-21T07:37:53;9.80;85.50
5226;DHT22;2632;51.666;7.146;2024-02-21T07:40:20;9.80;85.60
5226;DHT22;2632;51.666;7.146;2024-02-21T07:42:47;9.80;85.30
5226;DHT22;2632;51.666;7.146;2024-02-21T07:45:17;9.80;85.70
5226;DHT22;2632;51.666;7.146;2024-02-21T07:47:45;9.80;85.50
5226;DHT22;2632;51.666;7.146;2024-02-21T07:50:12;9.90;85.00
5226;DHT22;2632;51.666;7.146;2024-02-21T07:52:39;9.90;85.10
5226;DHT22;2632;51.666;7.146;2024-02-21T07:55:06;9.90;85.40
5226;DHT22;2632;51.666;7.146;2024-02-21T07:57:33;9.90;85.20
5226;DHT22;2632;51.666;7.146;2024-02-21T07:59:59;9.90;85.00
5226;DHT22;2632;51.666;7.146;2024-02-21T08:02:26;9.90;84.80
5226;DHT22;2632;51.666;7.146;2024-02-21T08:04:53;9.80;84.60
5226;DHT22;2632;51.666;7.146;2024-02-21T08:07:19;10.00;84.90
5226;DHT22;2632;51.666;7.146;2024-02-21T08:09:46;10.00;84.60
5226;DHT22;2632;51.666;7.146;2024-02-21T08:12:13;10.10;84.30
5226;DHT22;2632;51.666;7.146;2024-02-21T08:14:39;10.00;83.90
5226;DHT22;2632;51.666;7.146;2024-02-21T08:17:06;10.00;83.80
5226;DHT22;2632;51.666;7.146;2024-02-21T08:19:32;10.10;84.30
5226;DHT22;2632;51.666;7.146;2024-02-21T08:21:59;10.20;83.60
5226;DHT22;2632;51.666;7.146;2024-02-21T08:24:26;10.10;83.50
5226;DHT22;2632;51.666;7.146;2024-02-21T08:26:53;10.20;83.80
5226;DHT22;2632;51.666;7.146;2024-02-21T08:29:20;10.10;83.00
5226;DHT22;2632;51.666;7.146;2024-02-21T08:31:46;10.10;83.90
5226;DHT22;2632;51.666;7.146;2024-02-21T08:34:13;10.20;83.70
5226;DHT22;2632;51.666;7.146;2024-02-21T08:36:40;10.20;83.20
5226;DHT22;2632;51.666;7.146;2024-02-21T08:39:07;10.20;82.90
5226;DHT22;2632;51.666;7.146;2024-02-21T08:41:36;10.30;82.80
5226;DHT22;2632;51.666;7.146;2024-02-21T08:44:25;10.30;83.00
5226;DHT22;2632;51.666;7.146;2024-02-21T08:46:54;10.30;82.90
5226;DHT22;2632;51.666;7.146;2024-02-21T08:49:22;10.40;82.90
5226;DHT22;2632;51.666;7.146;2024-02-21T08:51:49;10.40;82.70
5226;DHT22;2632;51.666;7.146;2024-02-21T08:54:15;10.50;82.70
5226;DHT22;2632;51.666;7.146;2024-02-21T08:56:43;10.50;82.10
5226;DHT22;2632;51.666;7.146;2024-02-21T08:59:09;10.60;82.30
5226;DHT22;2632;51.666;7.146;2024-02-21T09:01:36;10.60;82.50
5226;DHT22;2632;51.666;7.146;2024-02-21T09:04:04;10.60;85.30
5226;DHT22;2632;51.666;7.146;2024-02-21T09:06:32;10.90;82.00
5226;DHT22;2632;51.666;7.146;2024-02-21T09:09:00;10.90;81.90
5226;DHT22;2632;51.666;7.146;2024-02-21T09:11:26;11.10;80.70
5226;DHT22;2632;51.666;7.146;2024-02-21T09:13:54;11.00;80.10
5226;DHT22;2632;51.666;7.146;2024-02-21T09:16:21;11.00;81.30
5226;DHT22;2632;51.666;7.146;2024-02-21T09:18:49;11.00;81.00
5226;DHT22;2632;51.666;7.146;2024-02-21T09:21:16;10.80;81.50
5226;DHT22;2632;51.666;7.146;2024-02-21T09:23:43;10.60;82.00
5226;DHT22;2632;51.666;7.146;2024-02-21T09:26:09;10.50;83.00
5226;DHT22;2632;51.666;7.146;2024-02-21T09:28:40;10.50;82.30
5226;DHT22;2632;51.666;7.146;2024-02-21T09:31:07;10.40;82.90
5226;DHT22;2632;51.666;7.146;2024-02-21T09:33:33;10.40;82.70
5226;DHT22;2632;51.666;7.146;2024-02-21T09:36:01;10.40;81.70
5226;DHT22;2632;51.666;7.146;2024-02-21T09:38:27;10.50;81.10
5226;DHT22;2632;51.666;7.146;2024-02-21T09:40:59;10.70;81.70
5226;DHT22;2632;51.666;7.146;2024-02-21T09:43:27;11.00;80.70
5226;DHT22;2632;51.666;7.146;2024-02-21T09:45:58;11.30;79.70
5226;DHT22;2632;51.666;7.146;2024-02-21T09:51:19;11.10;79.10
5226;DHT22;2632;51.666;7.146;2024-02-21T09:53:48;11.00;79.40
5226;DHT22;2632;51.666;7.146;2024-02-21T09:56:28;11.10;80.40
5226;DHT22;2632;51.666;7.146;2024-02-21T09:58:55;11.30;79.50
5226;DHT22;2632;51.666;7.146;2024-02-21T10:01:22;11.20;79.30
5226;DHT22;2632;51.666;7.146;2024-02-21T10:04:00;11.30;79.30
5226;DHT22;2632;51.666;7.146;2024-02-21T10:06:29;11.10;78.60
5226;DHT22;2632;51.666;7.146;2024-02-21T10:08:56;11.00;79.70
5226;DHT22;2632;51.666;7.146;2024-02-21T10:11:23;11.00;78.90
5226;DHT22;2632;51.666;7.146;2024-02-21T10:13:51;11.00;79.50
5226;DHT22;2632;51.666;7.146;2024-02-21T10:16:18;11.00;78.70
5226;DHT22;2632;51.666;7.146;2024-02-21T10:18:45;10.90;79.40
5226;DHT22;2632;51.666;7.146;2024-02-21T10:21:11;10.90;79.40
5226;DHT22;2632;51.666;7.146;2024-02-21T10:23:42;10.80;79.60
5226;DHT22;2632;51.666;7.146;2024-02-21T10:26:09;10.80;79.80
5226;DHT22;2632;51.666;7.146;2024-02-21T10:28:37;10.80;79.60
5226;DHT22;2632;51.666;7.146;2024-02-21T10:31:10;10.90;79.60
5226;DHT22;2632;51.666;7.146;2024-02-21T10:33:40;10.80;79.30
5226;DHT22;2632;51.666;7.146;2024-02-21T10:36:08;10.80;80.10
5226;DHT22;2632;51.666;7.146;2024-02-21T10:38:39;10.80;79.10
5226;DHT22;2632;51.666;7.146;2024-02-21T10:41:06;10.90;79.90
5226;DHT22;2632;51.666;7.146;2024-02-21T10:43:43;11.10;79.00
5226;DHT22;2632;51.666;7.146;2024-02-21T10:46:12;11.10;78.80
5226;DHT22;2632;51.666;7.146;2024-02-21T10:48:44;11.10;78.60
5226;DHT22;2632;51.666;7.146;2024-02-21T10:51:16;11.20;78.80
5226;DHT22;2632;51.666;7.146;2024-02-21T10:54:39;11.20;78.70
5226;DHT22;2632;51.666;7.146;2024-02-21T10:56:58;11.20;78.50
5226;DHT22;2632;51.666;7.146;2024-02-21T10:59:27;11.10;79.30
5226;DHT22;2632;51.666;7.146;2024-02-21T11:01:55;11.00;79.10
5226;DHT22;2632;51.666;7.146;2024-02-21T11:04:25;10.90;78.60
5226;DHT22;2632;51.666;7.146;2024-02-21T11:06:53;10.80;78.70
5226;DHT22;2632;51.666;7.146;2024-02-21T11:09:32;10.80;79.60
5226;DHT22;2632;51.666;7.146;2024-02-21T11:12:04;10.90;79.30
5226;DHT22;2632;51.666;7.146;2024-02-21T11:14:32;10.80;78.60
5226;DHT22;2632;51.666;7.146;2024-02-21T11:17:00;10.90;78.80
5226;DHT22;2632;51.666;7.146;2024-02-21T11:19:29;11.00;78.40
5226;DHT22;2632;51.666;7.146;2024-02-21T11:21:58;11.00;78.30
5226;DHT22;2632;51.666;7.146;2024-02-21T11:24:32;11.20;78.60
5226;DHT22;2632;51.666;7.146;2024-02-21T11:27:21;11.20;77.70
5226;DHT22;2632;51.666;7.146;2024-02-21T11:29:48;11.20;77.50
5226;DHT22;2632;51.666;7.146;2024-02-21T11:32:19;11.20;76.40
5226;DHT22;2632;51.666;7.146;2024-02-21T11:35:00;11.20;77.80
5226;DHT22;2632;51.666;7.146;2024-02-21T11:37:35;11.20;77.40
5226;DHT22;2632;51.666;7.146;2024-02-21T11:40:06;11.40;77.80
5226;DHT22;2632;51.666;7.146;2024-02-21T11:42:36;11.60;77.00
5226;DHT22;2632;51.666;7.146;2024-02-21T11:45:03;11.80;75.80
5226;DHT22;2632;51.666;7.146;2024-02-21T11:47:29;11.70;75.50
5226;DHT22;2632;51.666;7.146;2024-02-21T11:49:57;11.70;75.60
5226;DHT22;2632;51.666;7.146;2024-02-21T11:52:24;11.60;75.70
5226;DHT22;2632;51.666;7.146;2024-02-21T11:54:53;11.50;76.00
5226;DHT22;2632;51.666;7.146;2024-02-21T11:57:20;11.60;75.70
5226;DHT22;2632;51.666;7.146;2024-02-21T11:59:47;11.70;75.10
5226;DHT22;2632;51.666;7.146;2024-02-21T12:02:16;11.70;76.20
5226;DHT22;2632;51.666;7.146;2024-02-21T12:04:44;11.80;75.80
5226;DHT22;2632;51.666;7.146;2024-02-21T12:07:11;11.90;74.90
5226;DHT22;2632;51.666;7.146;2024-02-21T12:09:38;11.80;75.00
5226;DHT22;2632;51.666;7.146;2024-02-21T12:12:08;11.90;75.10
5226;DHT22;2632;51.666;7.146;2024-02-21T12:14:35;12.10;74.50
5226;DHT22;2632;51.666;7.146;2024-02-21T12:17:03;12.20;74.70
5226;DHT22;2632;51.666;7.146;2024-02-21T12:19:31;12.10;73.10
5226;DHT22;2632;51.666;7.146;2024-02-21T12:22:01;12.00;74.00
5226;DHT22;2632;51.666;7.146;2024-02-21T12:24:32;12.00;73.50
5226;DHT22;2632;51.666;7.146;2024-02-21T12:26:59;12.00;74.40
5226;DHT22;2632;51.666;7.146;2024-02-21T12:29:26;12.10;75.10
5226;DHT22;2632;51.666;7.146;2024-02-21T12:31:53;11.90;74.50
5226;DHT22;2632;51.666;7.146;2024-02-21T12:34:21;11.90;73.80
5226;DHT22;2632;51.666;7.146;2024-02-21T12:37:04;12.00;74.30
5226;DHT22;2632;51.666;7.146;2024-02-21T12:39:30;12.00;73.80
5226;DHT22;2632;51.666;7.146;2024-02-21T12:41:59;12.00;73.90
5226;DHT22;2632;51.666;7.146;2024-02-21T12:44:25;12.10;74.70
5226;DHT22;2632;51.666;7.146;2024-02-21T12:46:52;12.10;73.10
5226;DHT22;2632;51.666;7.146;2024-02-21T12:49:21;12.10;73.30
5226;DHT22;2632;51.666;7.146;2024-02-21T12:51:48;12.10;73.70
5226;DHT22;2632;51.666;7.146;2024-02-21T12:54:15;12.10;72.10
5226;DHT22;2632;51.666;7.146;2024-02-21T12:56:41;12.20;73.60
5226;DHT22;2632;51.666;7.146;2024-02-21T12:59:08;12.30;72.60
5226;DHT22;2632;51.666;7.146;2024-02-21T13:01:38;12.40;71.90
5226;DHT22;2632;51.666;7.146;2024-02-21T13:04:05;12.40;71.40
5226;DHT22;2632;51.666;7.146;2024-02-21T13:06:32;12.40;71.10
5226;DHT22;2632;51.666;7.146;2024-02-21T13:08:59;12.40;71.00
5226;DHT22;2632;51.666;7.146;2024-02-21T13:11:28;12.40;71.60
5226;DHT22;2632;51.666;7.146;2024-02-21T13:13:58;12.50;70.80
5226;DHT22;2632;51.666;7.146;2024-02-21T13:16:25;12.60;70.60
5226;DHT22;2632;51.666;7.146;2024-02-21T13:18:53;12.70;71.10
5226;DHT22;2632;51.666;7.146;2024-02-21T13:21:20;12.80;69.60
5226;DHT22;2632;51.666;7.146;2024-02-21T13:23:46;12.90;69.50
5226;DHT22;2632;51.666;7.146;2024-02-21T13:26:13;12.90;68.70
5226;DHT22;2632;51.666;7.146;2024-02-21T13:28:40;12.80;69.00
5226;DHT22;2632;51.666;7.146;2024-02-21T13:31:07;12.80;68.70
5226;DHT22;2632;51.666;7.146;2024-02-21T13:33:34;12.80;68.90
5226;DHT22;2632;51.666;7.146;2024-02-21T13:36:00;12.70;68.10
5226;DHT22;2632;51.666;7.146;2024-02-21T13:38:28;12.70;70.00
5226;DHT22;2632;51.666;7.146;2024-02-21T13:40:55;12.70;68.30
5226;DHT22;2632;51.666;7.146;2024-02-21T13:43:22;12.70;69.70
5226;DHT22;2632;51.666;7.146;2024-02-21T13:45:56;12.70;69.10
5226;DHT22;2632;51.666;7.146;2024-02-21T13:48:25;12.90;68.80
5226;DHT22;2632;51.666;7.146;2024-02-21T13:50:51;12.70;68.00
5226;DHT22;2632;51.666;7.146;2024-02-21T13:53:18;12.60;68.90
5226;DHT22;2632;51.666;7.146;2024-02-21T13:55:45;12.50;68.80
5226;DHT22;2632;51.666;7.146;2024-02-21T13:58:12;12.40;69.10
5226;DHT22;2632;51.666;7.146;2024-02-21T14:00:39;12.50;68.80
5226;DHT22;2632;51.666;7.146;2024-02-21T14:03:06;12.50;69.50
5226;DHT22;2632;51.666;7.146;2024-02-21T14:05:33;12.40;68.60
5226;DHT22;2632;51.666;7.146;2024-02-21T14:07:59;12.40;70.30
5226;DHT22;2632;51.666;7.146;2024-02-21T14:10:26;12.40;68.90
5226;DHT22;2632;51.666;7.146;2024-02-21T14:13:00;12.40;69.50
5226;DHT22;2632;51.666;7.146;2024-02-21T14:15:27;12.20;69.30
5226;DHT22;2632;51.666;7.146;2024-02-21T14:17:53;12.10;69.20
5226;DHT22;2632;51.666;7.146;2024-02-21T14:20:22;12.20;69.80
5226;DHT22;2632;51.666;7.146;2024-02-21T14:22:48;12.40;70.20
5226;DHT22;2632;51.666;7.146;2024-02-21T14:25:15;12.40;69.20
5226;DHT22;2632;51.666;7.146;2024-02-21T14:27:42;12.50;69.40
5226;DHT22;2632;51.666;7.146;2024-02-21T14:30:10;12.50;69.20
5226;DHT22;2632;51.666;7.146;2024-02-21T14:32:38;12.50;70.00
5226;DHT22;2632;51.666;7.146;2024-02-21T14:35:07;12.60;69.30
5226;DHT22;2632;51.666;7.146;2024-02-21T14:37:33;12.60;69.80
5226;DHT22;2632;51.666;7.146;2024-02-21T14:40:00;12.50;69.00
5226;DHT22;2632;51.666;7.146;2024-02-21T14:42:27;12.40;69.10
5226;DHT22;2632;51.666;7.146;2024-02-21T14:44:54;12.40;70.00
5226;DHT22;2632;51.666;7.146;2024-02-21T14:47:33;12.40;69.70
5226;DHT22;2632;51.666;7.146;2024-02-21T14:50:01;12.40;69.90
5226;DHT22;2632;51.666;7.146;2024-02-21T14:52:29;12.40;70.10
5226;DHT22;2632;51.666;7.146;2024-02-21T14:54:56;12.40;69.20
5226;DHT22;2632;51.666;7.146;2024-02-21T14:57:22;12.30;69.50
5226;DHT22;2632;51.666;7.146;2024-02-21T14:59:49;12.20;69.40
5226;DHT22;2632;51.666;7.146;2024-02-21T15:02:19;12.20;69.90
5226;DHT22;2632;51.666;7.146;2024-02-21T15:04:46;12.20;70.40
5226;DHT22;2632;51.666;7.146;2024-02-21T15:07:12;12.20;70.20
5226;DHT22;2632;51.666;7.146;2024-02-21T15:09:39;12.20;69.40
5226;DHT22;2632;51.666;7.146;2024-02-21T15:12:06;12.20;70.70
5226;DHT22;2632;51.666;7.146;2024-02-21T15:14:33;12.20;70.30
5226;DHT22;2632;51.666;7.146;2024-02-21T15:16:59;12.20;69.90
5226;DHT22;2632;51.666;7.146;2024-02-21T15:19:26;12.10;69.30
5226;DHT22;2632;51.666;7.146;2024-02-21T15:21:54;12.00;70.20
5226;DHT22;2632;51.666;7.146;2024-02-21T15:24:20;12.00;69.30
5226;DHT22;2632;51.666;7.146;2024-02-21T15:26:47;12.00;69.80
5226;DHT22;2632;51.666;7.146;2024-02-21T15:29:14;12.00;69.80
5226;DHT22;2632;51.666;7.146;2024-02-21T15:31:40;12.00;70.20
5226;DHT22;2632;51.666;7.146;2024-02-21T15:34:13;11.90;70.00
5226;DHT22;2632;51.666;7.146;2024-02-21T15:36:42;11.80;70.30
5226;DHT22;2632;51.666;7.146;2024-02-21T15:39:09;11.80;70.20
5226;DHT22;2632;51.666;7.146;2024-02-21T15:41:37;11.80;70.10
5226;DHT22;2632;51.666;7.146;2024-02-21T15:44:04;11.70;70.10
5226;DHT22;2632;51.666;7.146;2024-02-21T15:46:31;11.80;71.00
5226;DHT22;2632;51.666;7.146;2024-02-21T15:49:00;11.70;70.10
5226;DHT22;2632;51.666;7.146;2024-02-21T15:51:27;11.70;70.50
5226;DHT22;2632;51.666;7.146;2024-02-21T15:53:54;11.70;70.30
5226;DHT22;2632;51.666;7.146;2024-02-21T15:56:20;11.70;71.00
5226;DHT22;2632;51.666;7.146;2024-02-21T15:58:47;11.70;70.70
5226;DHT22;2632;51.666;7.146;2024-02-21T16:01:16;11.70;71.90
5226;DHT22;2632;51.666;7.146;2024-02-21T16:03:43;11.70;71.10
5226;DHT22;2632;51.666;7.146;2024-02-21T16:06:10;11.70;72.30
5226;DHT22;2632;51.666;7.146;2024-02-21T16:08:37;11.60;71.10
5226;DHT22;2632;51.666;7.146;2024-02-21T16:11:13;11.70;71.70
5226;DHT22;2632;51.666;7.146;2024-02-21T16:13:43;11.70;71.50
5226;DHT22;2632;51.666;7.146;2024-02-21T16:16:10;11.60;71.80